Time;durP1;ratioP1;P1;durP2;ratioP2;P2;SDS_P1;SDS_P2;PMS_P1;PMS_P2;Temp;Humidity;BMP_temperature;BMP_pressure;BME280_temperature;BME280_humidity;BME280_pressure;Samples;Min_cycle;Max_cycle;Signal;HPM_P1;HPM_P2
2023/12/17 00:01:31;;;;;;;27.50;15.83;;;;;;;;;;5071412;28;20491;-86
2023/12/17 00:03:57;;;;;;;22.37;14.90;;;;;;;;;;5073579;28;20448;-86
2023/12/17 00:06:24;;;;;;;21.50;14.43;;;;;;;;;;5076862;28;20491;-85
2023/12/17 00:08:50;;;;;;;22.80;14.27;;;;;;;;;;5074703;28;20586;-85
2023/12/17 00:11:17;;;;;;;26.53;15.87;;;;;;;;;;5069619;28;20456;-85
2023/12/17 00:13:43;;;;;;;22.73;14.47;;;;;;;;;;5078602;28;20456;-85
2023/12/17 00:16:10;;;;;;;24.30;16.57;;;;;;;;;;5076559;28;20452;-86
2023/12/17 00:18:36;;;;;;;21.23;15.03;;;;;;;;;;5074810;28;20452;-85
2023/12/17 00:21:03;;;;;;;22.23;16.37;;;;;;;;;;5077709;28;20912;-86
2023/12/17 00:23:30;;;;;;;24.37;15.63;;;;;;;;;;5077160;28;20484;-85
2023/12/17 00:25:57;;;;;;;22.27;15.90;;;;;;;;;;5071146;28;20508;-85
2023/12/17 00:28:23;;;;;;;24.30;16.43;;;;;;;;;;5076519;28;20476;-85
2023/12/17 00:30:50;;;;;;;25.10;16.50;;;;;;;;;;5073193;28;20453;-86
2023/12/17 00:33:17;;;;;;;27.53;17.13;;;;;;;;;;5073676;28;20448;-85
2023/12/17 00:35:43;;;;;;;26.43;17.60;;;;;;;;;;5073471;28;20488;-86
2023/12/17 00:38:10;;;;;;;28.60;18.37;;;;;;;;;;5073623;28;20488;-86
2023/12/17 00:40:38;;;;;;;26.53;18.60;;;;;;;;;;5076764;28;20456;-86
2023/12/17 00:43:04;;;;;;;26.70;18.97;;;;;;;;;;5070988;28;20885;-86
2023/12/17 00:45:30;;;;;;;25.57;17.17;;;;;;;;;;5075151;28;20515;-86
2023/12/17 00:47:57;;;;;;;25.00;16.10;;;;;;;;;;5067598;28;20456;-85
2023/12/17 00:50:23;;;;;;;26.90;18.07;;;;;;;;;;5069715;28;20523;-86
2023/12/17 00:52:49;;;;;;;26.00;17.70;;;;;;;;;;5077912;28;20988;-86
2023/12/17 00:55:16;;;;;;;25.63;16.13;;;;;;;;;;5075162;28;20487;-86
2023/12/17 00:57:44;;;;;;;23.20;16.30;;;;;;;;;;5076064;28;20457;-86
2023/12/17 01:00:11;;;;;;;23.50;15.23;;;;;;;;;;5080739;28;20479;-87
2023/12/17 01:02:37;;;;;;;26.50;17.50;;;;;;;;;;5070819;28;20501;-87
2023/12/17 01:05:04;;;;;;;21.00;15.47;;;;;;;;;;5074230;28;20484;-86
2023/12/17 01:07:31;;;;;;;19.73;14.93;;;;;;;;;;5081381;28;20455;-85
2023/12/17 01:09:57;;;;;;;24.30;16.50;;;;;;;;;;5073730;28;20559;-85
2023/12/17 01:12:24;;;;;;;23.03;16.00;;;;;;;;;;5077554;28;20515;-85
2023/12/17 01:14:51;;;;;;;21.37;15.10;;;;;;;;;;5080404;28;20455;-85
2023/12/17 01:17:18;;;;;;;22.57;15.10;;;;;;;;;;5076053;28;20805;-84
2023/12/17 01:19:44;;;;;;;24.47;16.00;;;;;;;;;;5077221;28;20530;-86
2023/12/17 01:22:11;;;;;;;25.20;16.60;;;;;;;;;;5078154;28;20491;-86
2023/12/17 01:24:37;;;;;;;23.70;16.47;;;;;;;;;;5074420;28;20520;-86
2023/12/17 01:27:04;;;;;;;22.40;15.87;;;;;;;;;;5081910;28;20458;-85
2023/12/17 01:29:31;;;;;;;25.93;16.63;;;;;;;;;;5078855;28;20503;-86
2023/12/17 01:31:58;;;;;;;23.67;16.03;;;;;;;;;;5077592;28;20490;-87
2023/12/17 01:34:25;;;;;;;21.87;14.77;;;;;;;;;;5077346;28;20521;-85
2023/12/17 01:36:52;;;;;;;23.73;16.07;;;;;;;;;;5075487;28;20517;-85
2023/12/17 01:39:18;;;;;;;23.30;17.03;;;;;;;;;;5075602;28;20487;-84
2023/12/17 01:41:45;;;;;;;22.60;17.23;;;;;;;;;;5078203;28;20517;-85
2023/12/17 01:44:11;;;;;;;22.63;15.87;;;;;;;;;;5079907;28;20491;-84
2023/12/17 01:46:38;;;;;;;22.93;15.83;;;;;;;;;;5078084;28;20524;-85
2023/12/17 01:49:06;;;;;;;26.67;18.03;;;;;;;;;;5068885;28;20959;-86
2023/12/17 01:51:33;;;;;;;23.67;16.37;;;;;;;;;;5075746;28;20460;-85
2023/12/17 01:54:00;;;;;;;18.87;14.40;;;;;;;;;;5075290;28;20455;-84
2023/12/17 01:56:27;;;;;;;21.40;15.73;;;;;;;;;;5076526;28;20460;-85
2023/12/17 01:58:53;;;;;;;21.60;15.63;;;;;;;;;;5073904;28;20455;-85
2023/12/17 02:01:20;;;;;;;22.60;15.30;;;;;;;;;;5076916;28;20516;-86
2023/12/17 02:03:46;;;;;;;24.47;16.30;;;;;;;;;;5078635;28;20512;-86
2023/12/17 02:06:14;;;;;;;31.13;17.53;;;;;;;;;;5074220;28;20475;-86
2023/12/17 02:08:41;;;;;;;23.97;16.43;;;;;;;;;;5074673;28;20862;-86
2023/12/17 02:11:07;;;;;;;23.40;16.53;;;;;;;;;;5076658;28;20558;-86
2023/12/17 02:13:34;;;;;;;21.13;14.73;;;;;;;;;;5075379;28;20487;-86
2023/12/17 02:16:00;;;;;;;27.97;17.47;;;;;;;;;;5077560;28;20865;-85
2023/12/17 02:18:26;;;;;;;26.83;17.27;;;;;;;;;;5080217;28;20517;-86
2023/12/17 02:20:53;;;;;;;28.03;17.83;;;;;;;;;;5078648;28;20540;-86
2023/12/17 02:23:21;;;;;;;19.17;14.93;;;;;;;;;;5071536;28;20512;-86
2023/12/17 02:25:48;;;;;;;25.17;17.00;;;;;;;;;;5077759;28;20476;-86
2023/12/17 02:28:14;;;;;;;26.23;17.93;;;;;;;;;;5078774;28;20498;-87
2023/12/17 02:30:40;;;;;;;24.33;16.40;;;;;;;;;;5073077;28;20570;-87
2023/12/17 02:33:07;;;;;;;24.20;16.60;;;;;;;;;;5075947;28;20523;-87
2023/12/17 02:35:33;;;;;;;23.70;16.13;;;;;;;;;;5077623;28;20456;-88
2023/12/17 02:38:00;;;;;;;25.23;18.13;;;;;;;;;;5078488;28;20495;-86
2023/12/17 02:40:27;;;;;;;24.23;16.00;;;;;;;;;;5077097;28;20479;-87
2023/12/17 02:42:54;;;;;;;21.90;15.37;;;;;;;;;;5078635;28;20544;-86
2023/12/17 02:45:20;;;;;;;20.60;15.07;;;;;;;;;;5075408;28;21000;-87
2023/12/17 02:47:47;;;;;;;27.80;16.90;;;;;;;;;;5075993;28;20486;-87
2023/12/17 02:50:13;;;;;;;24.07;15.50;;;;;;;;;;5076482;28;20575;-86
2023/12/17 02:52:40;;;;;;;22.13;15.13;;;;;;;;;;5078184;28;20556;-87
2023/12/17 02:55:06;;;;;;;23.03;14.67;;;;;;;;;;5076308;28;20483;-87
2023/12/17 02:57:37;;;;;;;21.63;15.57;;;;;;;;;;5078795;28;20554;-86
2023/12/17 03:00:04;;;;;;;25.40;16.20;;;;;;;;;;5078655;28;20498;-85
2023/12/17 03:02:30;;;;;;;23.13;16.50;;;;;;;;;;5072509;28;20479;-87
2023/12/17 03:04:58;;;;;;;25.10;16.57;;;;;;;;;;5070451;28;20490;-87
2023/12/17 03:07:24;;;;;;;21.97;16.03;;;;;;;;;;5076975;28;20470;-87
2023/12/17 03:09:54;;;;;;;24.20;16.67;;;;;;;;;;5076945;28;20559;-86
2023/12/17 03:12:20;;;;;;;24.87;15.53;;;;;;;;;;5068649;28;20463;-87
2023/12/17 03:14:48;;;;;;;29.90;17.27;;;;;;;;;;5079197;28;20905;-86
2023/12/17 03:17:14;;;;;;;23.77;16.73;;;;;;;;;;5078057;28;20455;-87
2023/12/17 03:19:41;;;;;;;23.20;16.10;;;;;;;;;;5075263;28;20479;-87
2023/12/17 03:22:07;;;;;;;27.33;18.60;;;;;;;;;;5077696;28;20492;-87
2023/12/17 03:24:34;;;;;;;25.23;16.57;;;;;;;;;;5076787;28;21440;-88
2023/12/17 03:27:00;;;;;;;21.57;15.07;;;;;;;;;;5076310;28;20593;-87
2023/12/17 03:29:26;;;;;;;23.80;16.10;;;;;;;;;;5078468;28;20499;-86
2023/12/17 03:31:54;;;;;;;23.97;16.90;;;;;;;;;;5071240;28;20456;-86
2023/12/17 03:34:22;;;;;;;25.00;16.60;;;;;;;;;;5070936;28;20528;-85
2023/12/17 03:36:48;;;;;;;23.00;15.60;;;;;;;;;;5064941;28;20457;-86
2023/12/17 03:39:14;;;;;;;22.30;15.27;;;;;;;;;;5074249;28;20507;-88
2023/12/17 03:41:41;;;;;;;20.70;14.50;;;;;;;;;;5071311;28;20483;-87
2023/12/17 03:44:07;;;;;;;21.37;13.97;;;;;;;;;;5080427;28;20478;-87
2023/12/17 03:46:34;;;;;;;23.50;15.43;;;;;;;;;;5078610;28;20483;-88
2023/12/17 03:49:02;;;;;;;20.50;15.50;;;;;;;;;;5080601;28;20456;-86
2023/12/17 03:51:28;;;;;;;22.93;16.03;;;;;;;;;;5074892;28;20527;-87
2023/12/17 03:53:55;;;;;;;25.00;16.57;;;;;;;;;;5075788;28;20448;-88
2023/12/17 03:56:24;;;;;;;23.20;15.47;;;;;;;;;;5074437;28;20939;-87
2023/12/17 03:58:50;;;;;;;26.17;17.30;;;;;;;;;;5080740;28;20550;-87
2023/12/17 04:01:16;;;;;;;20.93;15.70;;;;;;;;;;5080854;28;20527;-88
2023/12/17 04:03:43;;;;;;;23.47;16.37;;;;;;;;;;5072941;28;20491;-87
2023/12/17 04:06:11;;;;;;;22.40;15.07;;;;;;;;;;5074352;28;20487;-86
2023/12/17 04:08:37;;;;;;;21.73;15.17;;;;;;;;;;5076918;28;20459;-86
2023/12/17 04:11:04;;;;;;;20.57;14.80;;;;;;;;;;5072706;28;20580;-86
2023/12/17 04:13:30;;;;;;;23.67;16.23;;;;;;;;;;5075863;28;20893;-87
2023/12/17 04:15:56;;;;;;;19.30;14.73;;;;;;;;;;5077158;28;20515;-86
2023/12/17 04:18:23;;;;;;;21.27;15.87;;;;;;;;;;5073715;28;20449;-86
2023/12/17 04:20:49;;;;;;;24.77;14.80;;;;;;;;;;5075242;28;20488;-86
2023/12/17 04:23:17;;;;;;;23.17;15.30;;;;;;;;;;5077615;28;20459;-87
2023/12/17 04:25:43;;;;;;;26.03;16.80;;;;;;;;;;5077108;28;20487;-87
2023/12/17 04:28:10;;;;;;;25.90;16.47;;;;;;;;;;5078529;28;20452;-87
2023/12/17 04:30:36;;;;;;;21.40;15.73;;;;;;;;;;5077596;28;20577;-87
2023/12/17 04:33:02;;;;;;;22.87;15.90;;;;;;;;;;5077804;28;20453;-87
2023/12/17 04:35:29;;;;;;;25.13;15.70;;;;;;;;;;5080948;28;20480;-88
2023/12/17 04:37:55;;;;;;;24.23;16.30;;;;;;;;;;5081586;28;20475;-87
2023/12/17 04:40:23;;;;;;;24.57;15.50;;;;;;;;;;5082384;28;20479;-87
2023/12/17 04:42:49;;;;;;;26.50;16.63;;;;;;;;;;5082309;28;20448;-87
2023/12/17 04:45:16;;;;;;;23.10;16.53;;;;;;;;;;5078794;28;20586;-86
2023/12/17 04:47:42;;;;;;;23.90;17.00;;;;;;;;;;5073633;28;20507;-87
2023/12/17 04:50:09;;;;;;;24.97;17.33;;;;;;;;;;5082154;28;20610;-86
2023/12/17 04:52:35;;;;;;;21.23;15.83;;;;;;;;;;5082210;28;20856;-86
2023/12/17 04:55:02;;;;;;;23.30;16.23;;;;;;;;;;5070567;28;20483;-86
2023/12/17 04:57:30;;;;;;;22.83;15.57;;;;;;;;;;5077192;28;20452;-87
2023/12/17 05:00:00;;;;;;;19.97;15.27;;;;;;;;;;5079387;28;20504;-85
2023/12/17 05:02:27;;;;;;;23.33;15.93;;;;;;;;;;5081754;28;20509;-87
2023/12/17 05:04:53;;;;;;;21.33;15.90;;;;;;;;;;5080379;28;20456;-86
2023/12/17 05:07:20;;;;;;;23.73;16.80;;;;;;;;;;5082168;28;20500;-86
2023/12/17 05:09:46;;;;;;;21.93;15.93;;;;;;;;;;5079124;28;20460;-87
2023/12/17 05:12:12;;;;;;;21.20;15.47;;;;;;;;;;5077363;28;20558;-87
2023/12/17 05:14:40;;;;;;;22.33;16.17;;;;;;;;;;5074564;28;20454;-87
2023/12/17 05:17:07;;;;;;;24.13;16.47;;;;;;;;;;5080299;28;20471;-86
2023/12/17 05:19:33;;;;;;;22.13;16.23;;;;;;;;;;5079224;28;21041;-86
2023/12/17 05:21:59;;;;;;;23.17;15.93;;;;;;;;;;5070630;28;20495;-86
2023/12/17 05:24:26;;;;;;;22.73;15.13;;;;;;;;;;5075164;28;20570;-87
2023/12/17 05:26:52;;;;;;;22.90;16.77;;;;;;;;;;5071280;28;21030;-86
2023/12/17 05:29:18;;;;;;;21.27;15.20;;;;;;;;;;5080006;28;20524;-87
2023/12/17 05:31:46;;;;;;;24.27;16.90;;;;;;;;;;5073484;28;20480;-88
2023/12/17 05:34:13;;;;;;;20.10;15.80;;;;;;;;;;5079749;28;20488;-86
2023/12/17 05:36:39;;;;;;;21.30;15.50;;;;;;;;;;5079245;28;21035;-88
2023/12/17 05:39:05;;;;;;;26.80;16.30;;;;;;;;;;5074574;28;20527;-87
2023/12/17 05:41:32;;;;;;;20.67;14.57;;;;;;;;;;5077277;28;20451;-87
2023/12/17 05:43:58;;;;;;;23.50;16.47;;;;;;;;;;5078430;28;20480;-86
2023/12/17 05:46:26;;;;;;;23.53;14.30;;;;;;;;;;5078706;28;20538;-87
2023/12/17 05:48:54;;;;;;;21.43;14.93;;;;;;;;;;5080438;28;20470;-87
2023/12/17 05:51:21;;;;;;;22.20;13.97;;;;;;;;;;5080905;28;20582;-87
2023/12/17 05:53:47;;;;;;;23.00;16.10;;;;;;;;;;5081567;28;20455;-85
2023/12/17 05:56:13;;;;;;;19.30;14.47;;;;;;;;;;5077681;28;20475;-87
2023/12/17 05:58:41;;;;;;;21.17;15.83;;;;;;;;;;5073711;28;20542;-87
2023/12/17 06:01:08;;;;;;;19.90;14.83;;;;;;;;;;5075552;28;20457;-87
2023/12/17 06:03:34;;;;;;;21.17;16.13;;;;;;;;;;5077407;28;20487;-87
2023/12/17 06:06:02;;;;;;;21.47;13.90;;;;;;;;;;5074739;28;20546;-85
2023/12/17 06:08:28;;;;;;;20.27;14.80;;;;;;;;;;5076287;28;20536;-87
2023/12/17 06:10:55;;;;;;;22.77;15.13;;;;;;;;;;5079068;28;20933;-85
2023/12/17 06:13:21;;;;;;;26.27;18.27;;;;;;;;;;5078213;28;20557;-86
2023/12/17 06:15:47;;;;;;;20.70;15.37;;;;;;;;;;5076659;28;20480;-87
2023/12/17 06:18:15;;;;;;;19.60;14.50;;;;;;;;;;5074367;28;20444;-87
2023/12/17 06:20:41;;;;;;;21.40;14.07;;;;;;;;;;5068467;28;20523;-86
2023/12/17 06:23:10;;;;;;;21.13;14.60;;;;;;;;;;5079236;28;20499;-85
2023/12/17 06:25:37;;;;;;;25.07;15.80;;;;;;;;;;5073316;28;20451;-87
2023/12/17 06:28:03;;;;;;;21.50;14.83;;;;;;;;;;5080284;28;20494;-85
2023/12/17 06:30:32;;;;;;;23.50;14.40;;;;;;;;;;5078317;28;20464;-87
2023/12/17 06:32:59;;;;;;;23.00;13.43;;;;;;;;;;5077467;28;20952;-87
2023/12/17 06:35:25;;;;;;;23.13;15.40;;;;;;;;;;5077114;28;20480;-86
2023/12/17 06:37:52;;;;;;;23.10;15.50;;;;;;;;;;5069963;28;20523;-86
2023/12/17 06:40:19;;;;;;;21.37;15.60;;;;;;;;;;5076315;28;20491;-86
2023/12/17 06:42:46;;;;;;;24.20;15.00;;;;;;;;;;5078202;28;20456;-86
2023/12/17 06:45:12;;;;;;;20.77;14.87;;;;;;;;;;5071633;28;20522;-86
2023/12/17 06:47:38;;;;;;;21.47;15.20;;;;;;;;;;5077855;28;20516;-85
2023/12/17 06:50:06;;;;;;;20.03;14.37;;;;;;;;;;5079471;28;20538;-86
2023/12/17 06:52:32;;;;;;;20.43;14.30;;;;;;;;;;5075805;28;20516;-86
2023/12/17 06:54:58;;;;;;;23.33;15.77;;;;;;;;;;5076592;28;20925;-86
2023/12/17 06:57:26;;;;;;;21.90;14.67;;;;;;;;;;5073147;28;20476;-87
2023/12/17 06:59:53;;;;;;;22.07;14.37;;;;;;;;;;5069760;28;20483;-85
2023/12/17 07:02:19;;;;;;;24.60;14.97;;;;;;;;;;5070841;28;20507;-86
2023/12/17 07:04:45;;;;;;;23.70;15.97;;;;;;;;;;5075561;28;20471;-87
2023/12/17 07:07:12;;;;;;;23.33;15.23;;;;;;;;;;5066837;28;20469;-86
2023/12/17 07:09:38;;;;;;;24.40;16.47;;;;;;;;;;5071927;28;20969;-88
2023/12/17 07:12:05;;;;;;;19.50;15.10;;;;;;;;;;5070662;28;20472;-87
2023/12/17 07:14:33;;;;;;;21.60;16.27;;;;;;;;;;5067041;28;20480;-87
2023/12/17 07:16:59;;;;;;;21.50;14.60;;;;;;;;;;5069828;28;20490;-87
2023/12/17 07:19:26;;;;;;;23.83;16.00;;;;;;;;;;5065445;28;20545;-87
2023/12/17 07:21:52;;;;;;;21.83;15.13;;;;;;;;;;5070310;28;20560;-86
2023/12/17 07:24:19;;;;;;;25.97;16.93;;;;;;;;;;5067831;28;20432;-87
2023/12/17 07:26:45;;;;;;;22.23;14.80;;;;;;;;;;5068967;28;21012;-86
2023/12/17 07:29:11;;;;;;;22.87;15.77;;;;;;;;;;5071172;28;20451;-86
2023/12/17 07:31:39;;;;;;;23.47;14.70;;;;;;;;;;5071108;28;20536;-86
2023/12/17 07:34:06;;;;;;;23.83;15.23;;;;;;;;;;5069445;28;20488;-87
2023/12/17 07:36:32;;;;;;;23.20;14.10;;;;;;;;;;5068670;28;20922;-87
2023/12/17 07:38:58;;;;;;;21.83;14.83;;;;;;;;;;5070343;28;20485;-87
2023/12/17 07:41:25;;;;;;;29.10;17.67;;;;;;;;;;5067983;28;20521;-86
2023/12/17 07:43:51;;;;;;;22.50;15.37;;;;;;;;;;5073253;28;20469;-86
2023/12/17 07:46:18;;;;;;;24.63;15.87;;;;;;;;;;5068311;28;20843;-85
2023/12/17 07:48:45;;;;;;;26.50;16.40;;;;;;;;;;5069018;28;20524;-86
2023/12/17 07:51:12;;;;;;;26.27;15.53;;;;;;;;;;5067844;28;20555;-86
2023/12/17 07:53:38;;;;;;;23.23;14.10;;;;;;;;;;5066451;28;20476;-87
2023/12/17 07:56:08;;;;;;;19.73;14.27;;;;;;;;;;5077267;28;20888;-86
2023/12/17 07:58:34;;;;;;;22.23;15.93;;;;;;;;;;5076070;28;21498;-84
2023/12/17 08:01:00;;;;;;;26.30;16.30;;;;;;;;;;5070697;28;20516;-87
2023/12/17 08:03:27;;;;;;;22.53;14.77;;;;;;;;;;5068902;28;20475;-88
2023/12/17 08:05:55;;;;;;;25.03;16.47;;;;;;;;;;5069418;28;20495;-88
2023/12/17 08:08:21;;;;;;;22.97;15.10;;;;;;;;;;5080480;28;20484;-88
2023/12/17 08:10:48;;;;;;;23.37;15.57;;;;;;;;;;5081145;28;20467;-86
2023/12/17 08:13:15;;;;;;;25.93;15.97;;;;;;;;;;5081439;28;20925;-87
2023/12/17 08:15:41;;;;;;;24.73;16.40;;;;;;;;;;5077571;28;20479;-87
2023/12/17 08:18:08;;;;;;;23.70;15.00;;;;;;;;;;5081893;28;20479;-87
2023/12/17 08:20:34;;;;;;;24.67;16.33;;;;;;;;;;5077590;28;20491;-87
2023/12/17 08:23:05;;;;;;;21.20;15.40;;;;;;;;;;5076566;28;20459;-87
2023/12/17 08:25:33;;;;;;;26.60;15.07;;;;;;;;;;5074557;28;20455;-88
2023/12/17 08:27:59;;;;;;;23.20;14.93;;;;;;;;;;5077313;28;20842;-83
2023/12/17 08:30:26;;;;;;;22.70;14.20;;;;;;;;;;5082452;28;20475;-88
2023/12/17 08:32:52;;;;;;;23.50;15.67;;;;;;;;;;5074706;28;20500;-82
2023/12/17 08:35:19;;;;;;;23.63;15.53;;;;;;;;;;5074622;28;20475;-85
2023/12/17 08:37:46;;;;;;;22.93;14.77;;;;;;;;;;5075739;28;20778;-86
2023/12/17 08:40:14;;;;;;;20.97;13.87;;;;;;;;;;5072887;28;20456;-85
2023/12/17 08:42:41;;;;;;;23.00;15.60;;;;;;;;;;5073345;28;20455;-90
2023/12/17 08:45:08;;;;;;;21.20;13.67;;;;;;;;;;5070705;28;20492;-89
2023/12/17 08:47:34;;;;;;;20.77;13.77;;;;;;;;;;5068209;28;20480;-89
2023/12/17 08:50:01;;;;;;;21.97;14.20;;;;;;;;;;5071743;28;20480;-87
2023/12/17 08:52:27;;;;;;;19.53;12.60;;;;;;;;;;5077952;28;20487;-88
2023/12/17 08:54:54;;;;;;;22.57;13.70;;;;;;;;;;5070866;28;20712;-89
2023/12/17 08:57:22;;;;;;;18.20;13.47;;;;;;;;;;5074544;28;20519;-88
2023/12/17 08:59:48;;;;;;;17.47;12.43;;;;;;;;;;5068702;28;20792;-89
2023/12/17 09:02:14;;;;;;;18.70;14.17;;;;;;;;;;5073261;28;20444;-88
2023/12/17 09:04:41;;;;;;;19.67;13.73;;;;;;;;;;5080475;28;21540;-87
2023/12/17 09:07:07;;;;;;;18.30;12.80;;;;;;;;;;5075777;28;20499;-87
2023/12/17 09:09:34;;;;;;;18.50;12.03;;;;;;;;;;5075689;28;20495;-87
2023/12/17 09:12:00;;;;;;;15.70;10.70;;;;;;;;;;5081507;28;20511;-89
2023/12/17 09:14:28;;;;;;;16.97;11.00;;;;;;;;;;5080875;28;20478;-89
2023/12/17 09:16:54;;;;;;;16.67;11.03;;;;;;;;;;5080341;28;20459;-90
2023/12/17 09:19:21;;;;;;;18.50;12.70;;;;;;;;;;5081058;28;20491;-89
2023/12/17 09:21:47;;;;;;;17.13;12.50;;;;;;;;;;5079466;28;20524;-89
2023/12/17 09:24:14;;;;;;;18.13;12.60;;;;;;;;;;5082027;28;20499;-89
2023/12/17 09:26:40;;;;;;;16.63;11.00;;;;;;;;;;5080468;28;20452;-89
2023/12/17 09:29:07;;;;;;;19.70;13.20;;;;;;;;;;5081162;28;21079;-91
2023/12/17 09:31:35;;;;;;;16.70;12.43;;;;;;;;;;5080810;28;20571;-87
2023/12/17 09:34:01;;;;;;;19.97;13.70;;;;;;;;;;5080827;28;20457;-89
2023/12/17 09:36:28;;;;;;;20.67;12.93;;;;;;;;;;5080388;28;20456;-89
2023/12/17 09:38:54;;;;;;;19.70;13.20;;;;;;;;;;5077053;28;20519;-90
2023/12/17 09:41:21;;;;;;;18.33;12.97;;;;;;;;;;5077697;28;20444;-85
2023/12/17 09:43:47;;;;;;;18.27;13.70;;;;;;;;;;5080778;28;20504;-88
2023/12/17 09:46:13;;;;;;;18.33;12.50;;;;;;;;;;5079954;28;20511;-88
2023/12/17 09:48:42;;;;;;;19.43;12.70;;;;;;;;;;5076250;28;20452;-87
2023/12/17 09:51:10;;;;;;;18.83;12.23;;;;;;;;;;5075008;28;20467;-88
2023/12/17 09:53:36;;;;;;;16.30;12.10;;;;;;;;;;5073635;28;20506;-87
2023/12/17 09:56:04;;;;;;;21.63;12.57;;;;;;;;;;5071362;28;20507;-87
2023/12/17 09:58:30;;;;;;;17.50;11.27;;;;;;;;;;5076967;28;20448;-89
2023/12/17 10:00:57;;;;;;;17.73;11.80;;;;;;;;;;5074523;28;20464;-89
2023/12/17 10:03:23;;;;;;;16.30;12.50;;;;;;;;;;5075028;28;20493;-87
2023/12/17 10:05:52;;;;;;;16.93;10.53;;;;;;;;;;5074958;28;20484;-89
2023/12/17 10:08:18;;;;;;;16.23;11.70;;;;;;;;;;5076067;28;20467;-89
2023/12/17 10:10:45;;;;;;;17.17;12.20;;;;;;;;;;5077209;28;20499;-87
2023/12/17 10:13:12;;;;;;;15.60;11.97;;;;;;;;;;5079370;28;20572;-82
2023/12/17 10:15:39;;;;;;;19.80;13.93;;;;;;;;;;5074919;28;20445;-85
2023/12/17 10:18:06;;;;;;;20.33;13.83;;;;;;;;;;5075604;28;20464;-84
2023/12/17 10:20:34;;;;;;;15.43;11.07;;;;;;;;;;5073760;28;20456;-84
2023/12/17 10:23:03;;;;;;;13.27;10.97;;;;;;;;;;5074218;28;20448;-86
2023/12/17 10:25:30;;;;;;;13.33;10.40;;;;;;;;;;5072746;28;20460;-84
2023/12/17 10:27:58;;;;;;;11.80;10.60;;;;;;;;;;5074584;28;20448;-86
2023/12/17 10:30:27;;;;;;;14.47;10.90;;;;;;;;;;5075991;28;20463;-85
2023/12/17 10:32:54;;;;;;;13.17;11.50;;;;;;;;;;5071903;28;20514;-86
2023/12/17 10:35:21;;;;;;;13.63;11.20;;;;;;;;;;5073310;28;20477;-86
2023/12/17 10:37:49;;;;;;;15.13;12.30;;;;;;;;;;5074621;28;20475;-83
2023/12/17 10:40:17;;;;;;;13.30;10.87;;;;;;;;;;5075634;28;20463;-85
2023/12/17 10:42:45;;;;;;;11.90;10.60;;;;;;;;;;5076438;28;20490;-82
2023/12/17 10:45:12;;;;;;;15.20;11.87;;;;;;;;;;5076789;28;20509;-82
2023/12/17 10:47:39;;;;;;;13.17;11.13;;;;;;;;;;5074524;28;20466;-84
2023/12/17 10:50:06;;;;;;;14.30;11.90;;;;;;;;;;5081755;28;20467;-85
2023/12/17 10:52:33;;;;;;;13.53;10.60;;;;;;;;;;5082733;28;20548;-85
2023/12/17 10:54:59;;;;;;;16.13;12.33;;;;;;;;;;5081714;28;20491;-85
2023/12/17 10:57:29;;;;;;;14.50;12.13;;;;;;;;;;5078026;28;20572;-83
2023/12/17 10:59:56;;;;;;;13.40;10.47;;;;;;;;;;5072201;28;20483;-84
2023/12/17 11:02:23;;;;;;;13.83;11.00;;;;;;;;;;5073202;28;21026;-83
2023/12/17 11:04:50;;;;;;;11.27;10.17;;;;;;;;;;5075060;28;20455;-83
2023/12/17 11:07:17;;;;;;;10.03;9.00;;;;;;;;;;5074494;28;20476;-83
2023/12/17 11:09:44;;;;;;;10.90;9.83;;;;;;;;;;5073837;28;20536;-83
2023/12/17 11:12:11;;;;;;;11.90;10.40;;;;;;;;;;5072330;28;20521;-83
2023/12/17 11:14:42;;;;;;;12.50;10.47;;;;;;;;;;5078904;28;20472;-85
2023/12/17 11:17:11;;;;;;;12.40;11.10;;;;;;;;;;5082535;28;20512;-83
2023/12/17 11:19:52;;;;;;;8.97;8.10;;;;;;;;;;5082251;28;20543;-86
2023/12/17 11:22:18;;;;;;;11.33;10.13;;;;;;;;;;5082498;28;20447;-85
2023/12/17 11:24:45;;;;;;;9.60;8.57;;;;;;;;;;5081335;28;20444;-86
2023/12/17 11:27:11;;;;;;;9.53;8.63;;;;;;;;;;5081325;28;20452;-84
2023/12/17 11:29:41;;;;;;;9.63;8.50;;;;;;;;;;5072830;28;20457;-84
2023/12/17 11:32:08;;;;;;;9.77;8.90;;;;;;;;;;5072278;28;20467;-86
2023/12/17 11:34:35;;;;;;;9.10;8.20;;;;;;;;;;5072764;28;20441;-85
2023/12/17 11:37:01;;;;;;;9.33;8.43;;;;;;;;;;5078442;28;20557;-84
2023/12/17 11:39:28;;;;;;;9.40;8.60;;;;;;;;;;5079725;28;20460;-83
2023/12/17 11:41:55;;;;;;;9.70;8.80;;;;;;;;;;5081521;28;20460;-85
2023/12/17 11:44:21;;;;;;;7.97;7.27;;;;;;;;;;5080072;28;20478;-84
2023/12/17 11:46:49;;;;;;;9.53;8.63;;;;;;;;;;5080565;28;20517;-83
2023/12/17 11:49:22;;;;;;;10.00;9.00;;;;;;;;;;5077638;28;20502;-83
2023/12/17 11:51:48;;;;;;;9.43;8.40;;;;;;;;;;5078393;28;20451;-83
2023/12/17 11:54:17;;;;;;;8.23;7.43;;;;;;;;;;5077927;28;20531;-83
2023/12/17 11:56:44;;;;;;;8.80;7.90;;;;;;;;;;5080904;28;20448;-84
2023/12/17 11:59:10;;;;;;;7.80;7.10;;;;;;;;;;5078621;28;20456;-83
2023/12/17 12:01:37;;;;;;;10.30;7.90;;;;;;;;;;5080758;28;20480;-84
2023/12/17 12:04:05;;;;;;;8.30;7.50;;;;;;;;;;5073624;28;20645;-85
2023/12/17 12:06:31;;;;;;;8.10;7.30;;;;;;;;;;5078028;28;20456;-86
2023/12/17 12:08:59;;;;;;;9.13;8.30;;;;;;;;;;5079462;28;20551;-83
2023/12/17 12:11:30;;;;;;;8.70;7.90;;;;;;;;;;5072435;28;20463;-84
2023/12/17 12:13:57;;;;;;;9.43;7.63;;;;;;;;;;5073461;28;20475;-84
2023/12/17 12:16:24;;;;;;;8.83;7.20;;;;;;;;;;5078912;28;20555;-84
2023/12/17 12:19:01;;;;;;;10.13;9.23;;;;;;;;;;5079062;28;20490;-85
2023/12/17 12:21:28;;;;;;;8.63;7.77;;;;;;;;;;5067464;28;20893;-85
2023/12/17 12:23:56;;;;;;;7.83;7.13;;;;;;;;;;5065313;28;20499;-86
2023/12/17 12:26:23;;;;;;;8.10;7.40;;;;;;;;;;5076681;28;20547;-86
2023/12/17 12:28:55;;;;;;;8.50;7.70;;;;;;;;;;5076850;28;20514;-85
2023/12/17 12:31:22;;;;;;;8.40;7.70;;;;;;;;;;5075260;28;20473;-83
2023/12/17 12:33:52;;;;;;;8.43;7.70;;;;;;;;;;5072629;28;20540;-84
2023/12/17 12:36:18;;;;;;;11.43;9.17;;;;;;;;;;5072628;28;20491;-84
2023/12/17 12:38:46;;;;;;;9.80;8.60;;;;;;;;;;5077871;28;20529;-84
2023/12/17 12:41:13;;;;;;;8.30;7.40;;;;;;;;;;5078593;28;20493;-84
2023/12/17 12:43:40;;;;;;;10.80;8.30;;;;;;;;;;5073387;28;20449;-86
2023/12/17 12:46:07;;;;;;;8.87;8.10;;;;;;;;;;5071998;28;20558;-86
2023/12/17 12:48:33;;;;;;;9.37;8.57;;;;;;;;;;5076577;28;21107;-86
2023/12/17 12:51:00;;;;;;;8.97;8.20;;;;;;;;;;5077502;28;20539;-87
2023/12/17 12:53:26;;;;;;;10.50;9.37;;;;;;;;;;5082083;28;20514;-87
2023/12/17 12:55:55;;;;;;;9.67;8.83;;;;;;;;;;5079089;28;20529;-86
2023/12/17 12:58:21;;;;;;;10.13;9.23;;;;;;;;;;5082464;28;20479;-86
2023/12/17 13:00:49;;;;;;;10.13;9.23;;;;;;;;;;5081990;28;20452;-85
2023/12/17 13:03:16;;;;;;;10.27;9.33;;;;;;;;;;5079484;28;20543;-86
2023/12/17 13:05:42;;;;;;;11.53;8.27;;;;;;;;;;5081921;28;20443;-85
2023/12/17 13:08:08;;;;;;;10.43;9.30;;;;;;;;;;5076678;28;20482;-85
2023/12/17 13:10:35;;;;;;;10.37;9.20;;;;;;;;;;5071568;28;21011;-85
2023/12/17 13:13:03;;;;;;;11.87;10.20;;;;;;;;;;5076023;28;20507;-85
2023/12/17 13:15:29;;;;;;;12.80;10.70;;;;;;;;;;5081322;28;20517;-84
2023/12/17 13:17:55;;;;;;;12.07;10.30;;;;;;;;;;5081583;28;20567;-86
2023/12/17 13:20:22;;;;;;;11.10;9.97;;;;;;;;;;5080524;28;20455;-85
2023/12/17 13:22:48;;;;;;;13.47;10.20;;;;;;;;;;5077151;28;20487;-85
2023/12/17 13:25:15;;;;;;;12.13;10.53;;;;;;;;;;5090083;28;20467;-85
2023/12/17 13:27:42;;;;;;;12.73;10.50;;;;;;;;;;5080074;28;20452;-85
2023/12/17 13:30:11;;;;;;;16.33;12.40;;;;;;;;;;5076277;28;20468;-84
2023/12/17 13:32:37;;;;;;;13.27;11.03;;;;;;;;;;5085358;28;20467;-85
2023/12/17 13:35:04;;;;;;;14.30;10.73;;;;;;;;;;5074504;28;20521;-85
2023/12/17 13:37:31;;;;;;;15.17;12.30;;;;;;;;;;5084669;28;20490;-86
2023/12/17 13:39:57;;;;;;;14.47;11.37;;;;;;;;;;5084567;28;20511;-86
2023/12/17 13:42:25;;;;;;;16.23;12.13;;;;;;;;;;5083955;28;20502;-85
2023/12/17 13:44:51;;;;;;;17.07;11.10;;;;;;;;;;5083715;28;20460;-86
2023/12/17 13:47:19;;;;;;;14.60;10.53;;;;;;;;;;5080796;28;20494;-85
2023/12/17 13:49:46;;;;;;;17.00;11.40;;;;;;;;;;5081523;28;20452;-85
2023/12/17 13:52:12;;;;;;;17.43;11.93;;;;;;;;;;5077894;28;20460;-84
2023/12/17 13:54:38;;;;;;;18.73;12.00;;;;;;;;;;5077066;28;20480;-85
2023/12/17 13:57:05;;;;;;;17.80;12.03;;;;;;;;;;5076663;28;20513;-85
2023/12/17 13:59:32;;;;;;;15.57;12.10;;;;;;;;;;5081633;28;20451;-85
2023/12/17 14:01:58;;;;;;;17.97;13.43;;;;;;;;;;5078516;28;20482;-85
2023/12/17 14:04:26;;;;;;;19.10;13.40;;;;;;;;;;5078511;28;20484;-84
2023/12/17 14:06:52;;;;;;;17.57;12.70;;;;;;;;;;5080655;28;20486;-84
2023/12/17 14:09:19;;;;;;;17.77;13.40;;;;;;;;;;5076498;28;20460;-84
2023/12/17 14:11:46;;;;;;;17.30;12.70;;;;;;;;;;5076936;28;20492;-83
2023/12/17 14:14:12;;;;;;;18.00;12.60;;;;;;;;;;5067061;28;20500;-83
2023/12/17 14:16:42;;;;;;;19.83;13.60;;;;;;;;;;5073278;28;20448;-84
2023/12/17 14:19:08;;;;;;;20.77;14.27;;;;;;;;;;5071856;28;20471;-84